Time;durP1;ratioP1;P1;durP2;ratioP2;P2;SDS_P1;SDS_P2;PMS_P1;PMS_P2;Temp;Humidity;BMP_temperature;BMP_pressure;BME280_temperature;BME280_humidity;BME280_pressure;Samples;Min_cycle;Max_cycle;Signal;HPM_P1;HPM_P2
2021/08/16 00:01:05;;;;;;;1.77;1.67;;;18.70;99.90;;;;;;4969953;28;20609;-72
2021/08/16 00:03:31;;;;;;;1.80;1.70;;;18.80;99.90;;;;;;4987591;28;20403;-73
2021/08/16 00:05:57;;;;;;;3.67;1.80;;;18.70;99.90;;;;;;4971900;28;20392;-73
2021/08/16 00:08:22;;;;;;;1.90;1.70;;;18.70;99.90;;;;;;4970292;28;20457;-73
2021/08/16 00:10:48;;;;;;;3.92;1.95;;;18.70;99.90;;;;;;4987198;28;21303;-73
2021/08/16 00:13:13;;;;;;;2.03;1.83;;;18.60;99.90;;;;;;4969489;28;20412;-73
2021/08/16 00:15:39;;;;;;;1.80;1.70;;;18.60;99.90;;;;;;4986832;28;20484;-73
2021/08/16 00:18:05;;;;;;;2.42;2.20;;;18.50;99.90;;;;;;4971113;28;20391;-73
2021/08/16 00:20:31;;;;;;;2.00;1.90;;;18.50;99.90;;;;;;5003048;28;20389;-73
2021/08/16 00:22:56;;;;;;;1.80;1.70;;;18.40;99.90;;;;;;4963379;28;21268;-73
2021/08/16 00:25:22;;;;;;;2.20;2.00;;;18.40;99.90;;;;;;4987340;28;20397;-73
2021/08/16 00:27:48;;;;;;;1.98;1.88;;;18.40;99.90;;;;;;4971586;28;20397;-73
2021/08/16 00:30:14;;;;;;;2.00;1.90;;;18.40;99.90;;;;;;4970366;28;20408;-74
2021/08/16 00:32:39;;;;;;;4.60;2.05;;;18.40;99.90;;;;;;4969463;28;20398;-73
2021/08/16 00:35:05;;;;;;;1.80;1.70;;;18.30;99.90;;;;;;4970032;28;20430;-72
2021/08/16 00:37:31;;;;;;;2.10;1.90;;;18.30;99.90;;;;;;4984797;28;20404;-73
2021/08/16 00:39:56;;;;;;;3.10;2.13;;;18.30;99.90;;;;;;5002612;28;20432;-73
2021/08/16 00:42:22;;;;;;;2.25;2.05;;;18.20;99.90;;;;;;4989018;28;20399;-73
2021/08/16 00:44:48;;;;;;;1.63;1.52;;;18.20;99.90;;;;;;4971252;28;20405;-73
2021/08/16 00:47:14;;;;;;;1.87;1.77;;;18.10;99.90;;;;;;4969260;28;20900;-73
2021/08/16 00:49:40;;;;;;;2.00;1.80;;;18.10;99.90;;;;;;4971189;28;20417;-73
2021/08/16 00:52:06;;;;;;;1.80;1.65;;;18.10;99.90;;;;;;4984293;28;20805;-73
2021/08/16 00:54:32;;;;;;;2.10;1.90;;;18.00;99.90;;;;;;4970061;28;20396;-73
2021/08/16 00:56:59;;;;;;;2.90;2.10;;;18.00;99.90;;;;;;4969681;28;20901;-73
2021/08/16 00:59:24;;;;;;;2.30;2.10;;;17.90;99.90;;;;;;4970413;28;20469;-72
2021/08/16 01:01:50;;;;;;;3.63;2.10;;;17.90;99.90;;;;;;4968473;28;20424;-72
2021/08/16 01:04:16;;;;;;;1.70;1.60;;;17.80;99.90;;;;;;4988173;28;20406;-73
2021/08/16 01:06:41;;;;;;;2.38;2.08;;;17.80;99.90;;;;;;4985141;28;20405;-73
2021/08/16 01:09:07;;;;;;;2.20;2.07;;;17.80;99.90;;;;;;4970456;28;20416;-73
2021/08/16 01:11:33;;;;;;;1.85;1.70;;;17.70;99.90;;;;;;4968741;28;20448;-73
2021/08/16 01:13:58;;;;;;;1.80;1.70;;;17.70;99.90;;;;;;4969472;28;20773;-72
2021/08/16 01:16:24;;;;;;;1.77;1.67;;;17.60;99.90;;;;;;4969308;28;20479;-73
2021/08/16 01:18:50;;;;;;;2.05;1.95;;;17.50;99.90;;;;;;4985833;28;20487;-72
2021/08/16 01:21:17;;;;;;;1.87;1.77;;;17.50;99.90;;;;;;4970183;28;20528;-73
2021/08/16 01:23:43;;;;;;;2.00;1.90;;;17.50;99.90;;;;;;4985967;28;20400;-73
2021/08/16 01:26:09;;;;;;;2.30;2.10;;;17.40;99.90;;;;;;5000372;28;21250;-73
2021/08/16 01:28:35;;;;;;;2.13;2.03;;;17.40;99.90;;;;;;4985147;28;20402;-73
2021/08/16 01:31:02;;;;;;;2.00;1.90;;;17.40;99.90;;;;;;4967880;28;20971;-72
2021/08/16 01:33:28;;;;;;;2.73;2.30;;;17.30;99.90;;;;;;4968254;28;20413;-73
2021/08/16 01:35:53;;;;;;;2.80;2.33;;;17.30;99.90;;;;;;4969807;28;20404;-73
2021/08/16 01:38:20;;;;;;;2.93;2.07;;;17.30;99.90;;;;;;4984961;28;20451;-73
2021/08/16 01:40:47;;;;;;;1.83;1.73;;;17.30;99.90;;;;;;4970510;28;20414;-72
2021/08/16 01:43:12;;;;;;;2.08;1.98;;;17.20;99.90;;;;;;4984752;28;20419;-73
2021/08/16 01:45:38;;;;;;;1.90;1.80;;;17.20;99.90;;;;;;4967601;28;20877;-72
2021/08/16 01:48:04;;;;;;;1.80;1.70;;;17.10;99.90;;;;;;4984670;28;20389;-73
2021/08/16 01:50:30;;;;;;;2.33;2.13;;;17.10;99.90;;;;;;4969471;28;20419;-73
2021/08/16 01:52:56;;;;;;;2.27;2.07;;;17.10;99.90;;;;;;4968041;28;20404;-72
2021/08/16 01:55:21;;;;;;;2.13;1.95;;;17.10;99.90;;;;;;4984966;28;20401;-72
2021/08/16 01:57:47;;;;;;;2.30;2.10;;;17.00;99.90;;;;;;4983995;28;20402;-73
2021/08/16 02:00:13;;;;;;;2.05;1.85;;;17.00;99.90;;;;;;4967775;28;20485;-74
2021/08/16 02:02:39;;;;;;;2.13;1.97;;;17.00;99.90;;;;;;4968028;28;20793;-73
2021/08/16 02:05:05;;;;;;;2.03;1.90;;;17.00;99.90;;;;;;4984604;28;20743;-72
2021/08/16 02:07:31;;;;;;;2.45;2.25;;;17.00;99.90;;;;;;4969373;28;20449;-74
2021/08/16 02:09:57;;;;;;;2.30;2.10;;;17.00;99.90;;;;;;5002363;28;20496;-73
2021/08/16 02:12:22;;;;;;;1.95;1.85;;;16.90;99.90;;;;;;5000013;28;21045;-72
2021/08/16 02:14:48;;;;;;;2.83;2.17;;;16.90;99.90;;;;;;4984156;28;20455;-73
2021/08/16 02:17:14;;;;;;;1.80;1.70;;;16.80;99.90;;;;;;4982516;28;20413;-72
2021/08/16 02:19:39;;;;;;;2.77;2.07;;;16.80;99.90;;;;;;4967747;28;20406;-73
2021/08/16 02:22:05;;;;;;;1.92;1.83;;;16.70;99.90;;;;;;4984670;28;20804;-73
2021/08/16 02:24:31;;;;;;;2.80;2.30;;;16.70;99.90;;;;;;4967872;28;20418;-73
2021/08/16 02:26:56;;;;;;;2.50;2.30;;;16.70;99.90;;;;;;4966985;28;20408;-72
2021/08/16 02:29:22;;;;;;;2.50;2.30;;;16.70;99.90;;;;;;4984723;28;20398;-72
2021/08/16 02:31:47;;;;;;;2.50;2.30;;;16.70;99.90;;;;;;4966207;28;20399;-72
2021/08/16 02:34:13;;;;;;;2.05;1.85;;;16.70;99.90;;;;;;4984703;28;20402;-73
2021/08/16 02:36:39;;;;;;;1.95;1.85;;;16.60;99.90;;;;;;4966236;28;20796;-72
2021/08/16 02:39:04;;;;;;;2.00;1.90;;;16.60;99.90;;;;;;4985837;28;20419;-73
2021/08/16 02:41:30;;;;;;;2.80;1.98;;;16.50;99.90;;;;;;4984653;28;20397;-73
2021/08/16 02:43:56;;;;;;;1.93;1.83;;;16.50;99.90;;;;;;4968348;28;20407;-73
2021/08/16 02:46:22;;;;;;;1.98;1.88;;;16.40;99.90;;;;;;4983339;28;20387;-74
2021/08/16 02:48:47;;;;;;;2.20;2.00;;;16.40;99.90;;;;;;4984387;28;20388;-72
2021/08/16 02:51:13;;;;;;;2.60;1.93;;;16.30;99.90;;;;;;4983966;28;20412;-73
2021/08/16 02:53:39;;;;;;;2.33;2.08;;;16.30;99.90;;;;;;4968852;28;20440;-73
2021/08/16 02:56:04;;;;;;;2.37;2.17;;;16.20;99.90;;;;;;4968113;28;20399;-74
2021/08/16 02:58:30;;;;;;;2.40;2.20;;;16.20;99.90;;;;;;4983903;28;20404;-73
2021/08/16 03:00:56;;;;;;;2.20;2.00;;;16.20;99.90;;;;;;4982695;28;20409;-73
2021/08/16 03:03:21;;;;;;;3.30;2.30;;;16.10;99.90;;;;;;4983566;28;20535;-73
2021/08/16 03:05:47;;;;;;;2.27;2.10;;;16.10;99.90;;;;;;4967739;28;20503;-73
2021/08/16 03:08:13;;;;;;;2.33;2.13;;;16.10;99.90;;;;;;4967958;28;20428;-72
2021/08/16 03:10:38;;;;;;;2.20;1.98;;;16.10;99.90;;;;;;4983639;28;20409;-72
2021/08/16 03:13:04;;;;;;;2.93;1.90;;;16.10;99.90;;;;;;4984195;28;20929;-73
2021/08/16 03:15:30;;;;;;;2.00;1.90;;;16.00;99.90;;;;;;4983066;28;20413;-73
2021/08/16 03:17:56;;;;;;;2.30;2.10;;;16.00;99.90;;;;;;4983598;28;20404;-73
2021/08/16 03:20:22;;;;;;;2.50;2.20;;;16.00;99.90;;;;;;4984329;28;20541;-72
2021/08/16 03:22:47;;;;;;;2.10;2.00;;;16.00;99.90;;;;;;4983844;28;20406;-73
2021/08/16 03:25:13;;;;;;;1.95;1.83;;;16.00;99.90;;;;;;5000596;28;20936;-74
2021/08/16 03:27:39;;;;;;;2.40;2.20;;;16.00;99.90;;;;;;4984693;28;20411;-72
2021/08/16 03:30:05;;;;;;;2.30;1.90;;;16.00;99.90;;;;;;4983615;28;20904;-72
2021/08/16 03:32:31;;;;;;;2.00;1.90;;;15.90;99.90;;;;;;4983291;28;20450;-73
2021/08/16 03:34:57;;;;;;;2.33;2.13;;;15.90;99.90;;;;;;4983431;28;20397;-73
2021/08/16 03:37:22;;;;;;;1.97;1.87;;;15.90;99.90;;;;;;5001172;28;21154;-72
2021/08/16 03:39:48;;;;;;;2.50;2.30;;;15.90;99.90;;;;;;4993266;28;20421;-72
2021/08/16 03:42:14;;;;;;;3.30;1.95;;;15.80;99.90;;;;;;4967191;28;20397;-72
2021/08/16 03:44:39;;;;;;;2.40;2.10;;;15.80;99.90;;;;;;4968331;28;20408;-73
2021/08/16 03:47:06;;;;;;;2.30;2.10;;;15.80;99.90;;;;;;4966475;28;20402;-73
2021/08/16 03:49:32;;;;;;;2.30;2.10;;;15.80;99.90;;;;;;4989133;28;20401;-72
2021/08/16 03:51:58;;;;;;;2.70;2.50;;;15.90;99.90;;;;;;4970170;28;20402;-74
2021/08/16 03:54:24;;;;;;;2.50;2.25;;;15.90;99.90;;;;;;4971405;28;20392;-72
2021/08/16 03:56:50;;;;;;;2.47;2.00;;;15.90;99.90;;;;;;4984240;28;20917;-73
2021/08/16 03:59:16;;;;;;;2.45;2.25;;;15.90;99.90;;;;;;4971957;28;20395;-73
2021/08/16 04:01:41;;;;;;;2.22;2.13;;;15.90;99.90;;;;;;4968621;28;20410;-73
2021/08/16 04:04:08;;;;;;;2.40;2.20;;;15.90;99.90;;;;;;4971264;28;20388;-72
2021/08/16 04:06:34;;;;;;;2.30;2.10;;;15.90;99.90;;;;;;4970633;28;20395;-72
2021/08/16 04:08:59;;;;;;;2.30;2.10;;;15.90;99.90;;;;;;4970156;28;20491;-73
2021/08/16 04:11:25;;;;;;;2.13;2.03;;;15.90;99.90;;;;;;5003777;28;20413;-74
2021/08/16 04:13:51;;;;;;;2.30;2.10;;;15.90;99.90;;;;;;4990535;28;20397;-73
2021/08/16 04:16:16;;;;;;;2.60;2.40;;;16.00;99.90;;;;;;4968057;28;20401;-73
2021/08/16 04:18:42;;;;;;;2.67;2.38;;;15.90;99.90;;;;;;4970902;28;20408;-72
2021/08/16 04:21:08;;;;;;;2.80;2.60;;;15.90;99.90;;;;;;4987408;28;20397;-73
2021/08/16 04:23:33;;;;;;;2.42;2.22;;;16.00;99.90;;;;;;4985406;28;20401;-73
2021/08/16 04:25:59;;;;;;;3.85;2.35;;;16.00;99.90;;;;;;4970353;28;20401;-73
2021/08/16 04:28:25;;;;;;;2.30;2.10;;;16.00;99.90;;;;;;4970137;28;20643;-73
2021/08/16 04:30:51;;;;;;;2.60;2.40;;;16.00;99.90;;;;;;4986944;28;22280;-73
2021/08/16 04:33:18;;;;;;;2.40;2.20;;;16.10;99.90;;;;;;4986670;28;20404;-73
2021/08/16 04:35:43;;;;;;;2.47;2.28;;;16.20;99.90;;;;;;4987939;28;20401;-73
2021/08/16 04:38:10;;;;;;;2.63;2.20;;;16.20;99.90;;;;;;4970529;28;20419;-73
2021/08/16 04:40:36;;;;;;;2.40;2.10;;;16.20;99.90;;;;;;4970825;28;21969;-73
2021/08/16 04:43:01;;;;;;;2.00;1.90;;;16.30;99.90;;;;;;4985963;28;20436;-73
2021/08/16 04:45:27;;;;;;;2.13;2.00;;;16.30;99.90;;;;;;4970133;28;20451;-73
2021/08/16 04:47:53;;;;;;;3.13;2.70;;;16.40;99.90;;;;;;4985477;28;20404;-72
2021/08/16 04:50:18;;;;;;;2.88;2.50;;;16.50;99.90;;;;;;4967683;28;20969;-72
2021/08/16 04:52:44;;;;;;;3.28;2.50;;;16.50;99.90;;;;;;4986307;28;20471;-73
2021/08/16 04:55:10;;;;;;;3.03;2.50;;;16.70;99.90;;;;;;4986061;28;20406;-73
2021/08/16 04:57:39;;;;;;;2.70;2.50;;;16.80;99.90;;;;;;5002150;28;20908;-73
2021/08/16 05:00:08;;;;;;;2.70;2.50;;;16.90;99.90;;;;;;4969087;28;20405;-72
2021/08/16 05:02:34;;;;;;;3.03;2.78;;;17.10;99.90;;;;;;5001425;28;20478;-72
2021/08/16 05:05:10;;;;;;;2.47;2.30;;;17.20;99.90;;;;;;4985645;28;20879;-73
2021/08/16 05:07:36;;;;;;;2.55;2.35;;;17.30;99.90;;;;;;5000370;28;20472;-73
2021/08/16 05:10:03;;;;;;;2.70;2.50;;;17.40;99.90;;;;;;4968892;28;20504;-73
2021/08/16 05:12:28;;;;;;;3.38;2.60;;;17.50;99.90;;;;;;4984510;28;20463;-73
2021/08/16 05:14:54;;;;;;;2.93;2.73;;;17.60;99.90;;;;;;4986563;28;20415;-73
2021/08/16 05:17:20;;;;;;;2.60;2.40;;;17.60;99.90;;;;;;4968174;28;20517;-73
2021/08/16 05:19:46;;;;;;;2.90;2.50;;;17.70;99.90;;;;;;4969758;28;20397;-72
2021/08/16 05:22:11;;;;;;;4.10;2.67;;;17.80;99.90;;;;;;4969351;28;20401;-73
2021/08/16 05:24:37;;;;;;;2.87;2.57;;;18.00;99.90;;;;;;4985670;28;20401;-73
2021/08/16 05:27:03;;;;;;;2.75;2.53;;;18.10;99.90;;;;;;4967229;28;20418;-73
2021/08/16 05:29:29;;;;;;;2.15;2.05;;;18.20;99.90;;;;;;4970226;28;20403;-73
2021/08/16 05:31:55;;;;;;;2.73;2.33;;;18.30;99.90;;;;;;4968956;28;20413;-73
2021/08/16 05:34:20;;;;;;;2.72;2.47;;;18.40;99.90;;;;;;4988375;28;20394;-73
2021/08/16 05:36:46;;;;;;;2.70;2.50;;;18.50;99.90;;;;;;4969599;28;20446;-73
2021/08/16 05:39:11;;;;;;;2.60;2.40;;;18.50;99.90;;;;;;4985645;28;20420;-73
2021/08/16 05:41:37;;;;;;;3.42;2.55;;;18.60;99.90;;;;;;4993045;28;20399;-73
2021/08/16 05:44:03;;;;;;;3.40;2.80;;;18.70;99.90;;;;;;4985416;28;20399;-73
2021/08/16 05:46:29;;;;;;;2.47;2.28;;;18.80;99.90;;;;;;4951685;28;20398;-73
2021/08/16 05:48:54;;;;;;;3.17;2.38;;;19.00;99.90;;;;;;4969282;28;20392;-73
2021/08/16 05:51:20;;;;;;;3.23;2.93;;;19.10;99.90;;;;;;4968162;28;20417;-73
2021/08/16 05:53:46;;;;;;;2.90;2.70;;;19.10;99.90;;;;;;4969078;28;20448;-74
2021/08/16 05:56:11;;;;;;;2.57;2.37;;;19.20;99.90;;;;;;4985152;28;20482;-73
2021/08/16 05:58:37;;;;;;;3.00;2.35;;;19.30;99.90;;;;;;4983998;28;20403;-73
2021/08/16 06:01:03;;;;;;;2.53;2.30;;;19.40;99.90;;;;;;4968146;28;20393;-73
2021/08/16 06:03:28;;;;;;;3.07;2.37;;;19.60;99.90;;;;;;4968071;28;20417;-73
2021/08/16 06:05:54;;;;;;;3.28;2.60;;;19.70;99.90;;;;;;4983916;28;20908;-73
2021/08/16 06:08:20;;;;;;;3.72;2.70;;;19.90;99.90;;;;;;4984796;28;20400;-73
2021/08/16 06:10:45;;;;;;;2.63;2.33;;;20.00;99.90;;;;;;4967621;28;20413;-73
2021/08/16 06:13:11;;;;;;;2.53;2.33;;;20.10;99.90;;;;;;4984434;28;20936;-73
2021/08/16 06:15:38;;;;;;;2.30;2.05;;;20.20;99.90;;;;;;4977312;28;20897;-73
2021/08/16 06:18:04;;;;;;;3.15;2.22;;;20.30;99.90;;;;;;4967774;28;20406;-73
2021/08/16 06:20:29;;;;;;;10.43;2.45;;;20.40;99.90;;;;;;4968586;28;20552;-73
2021/08/16 06:22:55;;;;;;;2.90;2.40;;;20.60;99.90;;;;;;4967629;28;20397;-73
2021/08/16 06:25:21;;;;;;;3.97;2.25;;;20.80;99.90;;;;;;4968068;28;21333;-73
2021/08/16 06:27:46;;;;;;;2.50;2.30;;;20.90;99.90;;;;;;4967790;28;20424;-73
2021/08/16 06:30:12;;;;;;;2.97;1.87;;;21.10;99.90;;;;;;4967343;28;20423;-74
2021/08/16 06:32:38;;;;;;;2.95;2.28;;;21.30;99.90;;;;;;5002076;28;20408;-73
2021/08/16 06:35:04;;;;;;;2.27;2.07;;;21.50;99.90;;;;;;5001583;28;20769;-73
2021/08/16 06:37:30;;;;;;;2.40;2.20;;;21.70;99.90;;;;;;4968399;28;20400;-73
2021/08/16 06:39:56;;;;;;;2.20;2.00;;;21.80;99.90;;;;;;4968362;28;20656;-73
2021/08/16 06:42:21;;;;;;;2.87;2.00;;;21.90;99.90;;;;;;4983998;28;20468;-73
2021/08/16 06:44:47;;;;;;;1.93;1.83;;;22.00;99.90;;;;;;4967714;28;20891;-73
2021/08/16 06:47:13;;;;;;;2.15;1.83;;;22.20;99.90;;;;;;4967447;28;20482;-73
2021/08/16 06:49:39;;;;;;;2.10;1.90;;;22.30;99.90;;;;;;5000074;28;20418;-72
2021/08/16 06:52:05;;;;;;;2.35;1.90;;;22.50;99.90;;;;;;4967086;28;20479;-74
2021/08/16 06:54:30;;;;;;;2.00;1.90;;;22.70;99.90;;;;;;4985235;28;20398;-73
2021/08/16 06:57:00;;;;;;;2.40;1.95;;;22.80;99.90;;;;;;4983321;28;20399;-73
2021/08/16 06:59:25;;;;;;;2.10;1.80;;;23.00;99.90;;;;;;4968172;28;20395;-73
2021/08/16 07:01:51;;;;;;;1.80;1.70;;;23.20;99.90;;;;;;4990485;28;20414;-72
2021/08/16 07:04:18;;;;;;;3.17;1.92;;;23.20;99.90;;;;;;4984401;28;20462;-73
2021/08/16 07:06:44;;;;;;;2.00;1.90;;;23.40;99.90;;;;;;4983787;28;20483;-73
2021/08/16 07:09:10;;;;;;;2.42;1.90;;;23.50;99.90;;;;;;4984486;28;20489;-73
2021/08/16 07:11:36;;;;;;;2.10;1.90;;;23.60;99.90;;;;;;4998988;28;20878;-73
2021/08/16 07:14:01;;;;;;;1.73;1.63;;;23.70;99.90;;;;;;4968744;28;20451;-73
2021/08/16 07:16:27;;;;;;;1.70;1.60;;;23.90;99.90;;;;;;4983289;28;20394;-73
2021/08/16 07:18:53;;;;;;;1.97;1.77;;;24.00;99.90;;;;;;4999572;28;20408;-73
2021/08/16 07:21:18;;;;;;;1.70;1.60;;;24.10;99.90;;;;;;4999825;28;20934;-73
2021/08/16 07:23:44;;;;;;;2.42;1.52;;;24.30;99.90;;;;;;4952632;28;20412;-73
2021/08/16 07:26:10;;;;;;;1.70;1.60;;;24.50;99.90;;;;;;4970598;28;20397;-73
2021/08/16 07:28:36;;;;;;;1.70;1.60;;;24.70;99.90;;;;;;4969753;28;20413;-73
2021/08/16 07:31:02;;;;;;;1.77;1.67;;;24.80;99.90;;;;;;4971221;28;20421;-73
2021/08/16 07:33:28;;;;;;;1.95;1.77;;;25.00;99.90;;;;;;4988421;28;20806;-73
2021/08/16 07:35:53;;;;;;;1.50;1.40;;;25.10;99.90;;;;;;4970896;28;20413;-72
2021/08/16 07:38:19;;;;;;;1.37;1.33;;;25.20;99.90;;;;;;4970197;28;20385;-73
2021/08/16 07:40:45;;;;;;;1.90;1.60;;;25.30;99.90;;;;;;5004619;28;21110;-73
2021/08/16 07:43:10;;;;;;;1.60;1.50;;;25.40;99.90;;;;;;4986744;28;20411;-73
2021/08/16 07:45:36;;;;;;;1.17;1.17;;;25.50;99.90;;;;;;4970692;28;20511;-73
2021/08/16 07:48:03;;;;;;;1.48;1.38;;;25.60;99.90;;;;;;4986513;28;20439;-73
2021/08/16 07:50:30;;;;;;;1.58;1.48;;;25.70;99.90;;;;;;4987272;28;20410;-73
2021/08/16 07:52:55;;;;;;;1.53;1.43;;;25.70;99.90;;;;;;4987526;28;20453;-73
2021/08/16 07:55:21;;;;;;;1.50;1.40;;;25.90;99.90;;;;;;4986980;28;20510;-72
2021/08/16 07:57:47;;;;;;;1.47;1.37;;;26.00;99.90;;;;;;4971040;28;20404;-73
2021/08/16 08:00:13;;;;;;;1.60;1.50;;;26.10;99.90;;;;;;5003578;28;20393;-74
2021/08/16 08:02:39;;;;;;;1.30;1.25;;;26.20;99.90;;;;;;4986182;28;20976;-73
2021/08/16 08:05:06;;;;;;;1.40;1.30;;;26.30;99.90;;;;;;5003484;28;20395;-73
2021/08/16 08:07:32;;;;;;;1.60;1.50;;;26.30;99.90;;;;;;4970656;28;20424;-73
2021/08/16 08:09:57;;;;;;;1.23;1.20;;;26.30;99.90;;;;;;4970728;28;20425;-73
2021/08/16 08:12:23;;;;;;;1.50;1.40;;;26.40;99.90;;;;;;4986470;28;20809;-73
2021/08/16 08:14:49;;;;;;;1.60;1.30;;;26.30;99.90;;;;;;4971716;28;20381;-74
2021/08/16 08:17:14;;;;;;;1.30;1.20;;;26.30;99.90;;;;;;4985328;28;20434;-73
2021/08/16 08:19:40;;;;;;;1.65;1.50;;;26.40;99.90;;;;;;4987095;28;20415;-73
2021/08/16 08:22:06;;;;;;;1.40;1.30;;;26.50;99.90;;;;;;4970288;28;20407;-73
2021/08/16 08:24:31;;;;;;;1.50;1.40;;;26.60;99.90;;;;;;4970484;28;20464;-74
2021/08/16 08:26:57;;;;;;;2.13;1.50;;;26.80;99.90;;;;;;4986368;28;20468;-73
2021/08/16 08:29:24;;;;;;;1.23;1.23;;;26.90;99.90;;;;;;4987681;28;20790;-73
2021/08/16 08:31:50;;;;;;;1.77;1.30;;;26.90;99.90;;;;;;5001365;28;20445;-74
2021/08/16 08:34:15;;;;;;;1.57;1.47;;;27.10;99.90;;;;;;4969814;28;20416;-74
2021/08/16 08:36:43;;;;;;;1.95;1.48;;;27.10;99.90;;;;;;4978837;28;20397;-73
2021/08/16 08:39:09;;;;;;;1.50;1.40;;;27.20;99.90;;;;;;4971677;28;20381;-73
2021/08/16 08:41:35;;;;;;;1.73;1.48;;;27.30;99.90;;;;;;4969554;28;20413;-73
2021/08/16 08:44:04;;;;;;;1.33;1.30;;;27.30;99.90;;;;;;4969600;28;20508;-74
2021/08/16 08:46:30;;;;;;;2.35;1.67;;;27.20;99.90;;;;;;4987298;28;20477;-73
2021/08/16 08:48:55;;;;;;;1.43;1.33;;;27.20;99.90;;;;;;4971379;28;20476;-73
2021/08/16 08:51:21;;;;;;;1.87;1.40;;;27.00;99.90;;;;;;4969306;28;20407;-73
2021/08/16 08:53:47;;;;;;;1.40;1.30;;;27.00;99.90;;;;;;5002897;28;20902;-73
2021/08/16 08:56:14;;;;;;;1.33;1.23;;;27.10;99.90;;;;;;4985674;28;20401;-73
2021/08/16 08:58:40;;;;;;;1.80;1.70;;;27.10;99.90;;;;;;4994164;28;20408;-73
2021/08/16 09:01:06;;;;;;;1.17;1.13;;;27.20;99.90;;;;;;4969293;28;20390;-74
2021/08/16 09:03:31;;;;;;;1.43;1.27;;;27.20;99.90;;;;;;4985198;28;20404;-74
2021/08/16 09:05:59;;;;;;;1.50;1.40;;;27.20;99.90;;;;;;4985036;28;20406;-74
2021/08/16 09:08:31;;;;;;;1.50;1.40;;;27.20;99.90;;;;;;4986237;28;20408;-73
2021/08/16 09:11:10;;;;;;;1.40;1.30;;;27.10;99.90;;;;;;4952436;28;20414;-73
2021/08/16 09:13:36;;;;;;;2.20;1.70;;;27.00;99.90;;;;;;4985929;28;20882;-73
2021/08/16 09:16:09;;;;;;;1.70;1.50;;;27.00;99.90;;;;;;4968911;28;20443;-74
2021/08/16 09:18:35;;;;;;;2.67;1.75;;;27.00;99.90;;;;;;4952051;28;20484;-74
2021/08/16 09:21:00;;;;;;;1.50;1.40;;;26.90;99.90;;;;;;4986563;28;20950;-73
2021/08/16 09:23:26;;;;;;;1.40;1.30;;;26.90;99.90;;;;;;4984873;28;20399;-74
2021/08/16 09:25:56;;;;;;;1.67;1.58;;;26.90;99.90;;;;;;4969801;28;20446;-73
2021/08/16 09:28:31;;;;;;;1.50;1.40;;;26.90;99.90;;;;;;4983812;28;20439;-73
2021/08/16 09:31:10;;;;;;;1.55;1.45;;;27.10;99.90;;;;;;4967685;28;20417;-74
2021/08/16 09:33:36;;;;;;;1.58;1.48;;;27.30;99.90;;;;;;4999869;28;20438;-74
2021/08/16 09:36:01;;;;;;;3.15;1.75;;;27.20;99.90;;;;;;4984570;28;21138;-73
2021/08/16 09:38:37;;;;;;;1.60;1.50;;;27.30;99.90;;;;;;4984093;28;20481;-74
2021/08/16 09:41:06;;;;;;;1.60;1.50;;;27.50;99.90;;;;;;5002381;28;20459;-73
2021/08/16 09:43:32;;;;;;;1.60;1.50;;;27.60;99.90;;;;;;4985090;28;20931;-73
2021/08/16 09:46:00;;;;;;;1.70;1.60;;;27.80;99.90;;;;;;4967824;28;20394;-74
2021/08/16 09:48:25;;;;;;;1.70;1.60;;;28.00;99.90;;;;;;4984607;28;21032;-73
2021/08/16 09:50:53;;;;;;;2.57;1.80;;;28.10;99.90;;;;;;4984057;28;20469;-74
2021/08/16 09:53:23;;;;;;;3.78;1.90;;;28.20;99.90;;;;;;4984838;28;20484;-73
2021/08/16 09:55:50;;;;;;;1.63;1.52;;;28.30;99.90;;;;;;4985805;28;20484;-73
2021/08/16 09:58:17;;;;;;;1.70;1.60;;;28.40;99.90;;;;;;4968197;28;20860;-73
2021/08/16 10:00:47;;;;;;;1.52;1.42;;;28.50;99.90;;;;;;4968049;28;20483;-73
2021/08/16 10:03:13;;;;;;;2.08;1.80;;;28.70;99.90;;;;;;4984067;28;20399;-74
2021/08/16 10:05:40;;;;;;;1.80;1.70;;;28.80;99.90;;;;;;4969414;28;20773;-74
2021/08/16 10:08:10;;;;;;;1.70;1.60;;;28.80;99.90;;;;;;5000646;28;20455;-73
2021/08/16 10:10:36;;;;;;;1.75;1.50;;;28.80;99.90;;;;;;4984398;28;20417;-74
2021/08/16 10:13:03;;;;;;;2.80;1.80;;;29.00;99.90;;;;;;4984272;28;20472;-73
2021/08/16 10:15:30;;;;;;;2.80;1.77;;;28.90;99.90;;;;;;4993145;28;20412;-73
2021/08/16 10:17:56;;;;;;;1.80;1.70;;;28.90;99.90;;;;;;4983993;28;20950;-74
2021/08/16 10:20:21;;;;;;;1.70;1.60;;;28.80;99.90;;;;;;4984472;28;20402;-74
2021/08/16 10:22:47;;;;;;;3.22;1.60;;;28.80;99.90;;;;;;4967338;28;20905;-74
2021/08/16 10:25:17;;;;;;;1.85;1.58;;;28.70;99.90;;;;;;4986438;28;20476;-74
2021/08/16 10:27:43;;;;;;;1.45;1.35;;;28.70;99.90;;;;;;4967956;28;20890;-73
2021/08/16 10:30:16;;;;;;;1.45;1.35;;;28.70;99.90;;;;;;4969014;28;20424;-74
2021/08/16 10:32:42;;;;;;;1.70;1.60;;;28.80;99.90;;;;;;5008336;28;20405;-73
2021/08/16 10:35:09;;;;;;;1.42;1.33;;;28.90;99.90;;;;;;4969468;28;20735;-74
2021/08/16 10:37:37;;;;;;;2.13;1.83;;;29.20;99.90;;;;;;4984038;28;20428;-74
2021/08/16 10:40:23;;;;;;;1.98;1.77;;;29.10;99.90;;;;;;4984628;28;20406;-73
2021/08/16 10:42:53;;;;;;;1.75;1.63;;;29.00;99.90;;;;;;4983130;28;21403;-74
2021/08/16 10:45:26;;;;;;;1.73;1.63;;;28.90;99.90;;;;;;4984215;28;20395;-74
2021/08/16 10:48:02;;;;;;;1.30;1.30;;;29.30;99.90;;;;;;4967928;28;21086;-74
2021/08/16 10:50:28;;;;;;;1.80;1.70;;;29.60;99.90;;;;;;4991850;28;20494;-74
2021/08/16 10:53:01;;;;;;;1.83;1.73;;;29.40;99.90;;;;;;4983616;28;20474;-73
2021/08/16 10:55:27;;;;;;;1.33;1.23;;;29.00;99.90;;;;;;4969031;28;20488;-73
2021/08/16 10:57:53;;;;;;;3.00;1.95;;;28.90;99.90;;;;;;4984398;28;20437;-73
2021/08/16 11:00:19;;;;;;;1.48;1.38;;;28.80;99.90;;;;;;4971796;28;20906;-74
2021/08/16 11:02:44;;;;;;;2.00;1.60;;;28.70;99.90;;;;;;4987963;28;20414;-74
2021/08/16 11:05:11;;;;;;;1.50;1.40;;;28.70;99.90;;;;;;4988105;28;20402;-73
2021/08/16 11:07:37;;;;;;;1.95;1.75;;;28.70;99.90;;;;;;4987376;28;20393;-74
2021/08/16 11:10:06;;;;;;;1.95;1.70;;;28.70;99.90;;;;;;4988255;28;20464;-73
2021/08/16 11:12:42;;;;;;;1.63;1.52;;;28.60;99.90;;;;;;4986996;28;20396;-73
2021/08/16 11:15:11;;;;;;;1.52;1.30;;;28.50;99.90;;;;;;4972732;28;20999;-74
2021/08/16 11:17:37;;;;;;;1.70;1.60;;;28.30;99.90;;;;;;4987340;28;20413;-73
2021/08/16 11:20:13;;;;;;;1.88;1.70;;;28.20;99.90;;;;;;4996237;28;20482;-73
2021/08/16 11:22:44;;;;;;;1.77;1.67;;;28.40;99.90;;;;;;4973343;28;20945;-73
2021/08/16 11:25:11;;;;;;;1.88;1.67;;;28.70;99.90;;;;;;4989320;28;20396;-73
2021/08/16 11:27:43;;;;;;;1.40;1.33;;;28.80;99.90;;;;;;4987799;28;20408;-73
2021/08/16 11:30:12;;;;;;;1.90;1.70;;;28.80;99.90;;;;;;4956577;28;20404;-73
2021/08/16 11:32:39;;;;;;;2.85;1.85;;;28.70;99.90;;;;;;4986303;28;20435;-73
2021/08/16 11:35:06;;;;;;;2.20;1.90;;;28.60;99.90;;;;;;4987845;28;20405;-73
2021/08/16 11:37:38;;;;;;;4.23;2.03;;;28.60;99.90;;;;;;4993954;28;20418;-74
2021/08/16 11:40:04;;;;;;;1.77;1.60;;;28.80;98.20;;;;;;4988085;28;20405;-73
2021/08/16 11:42:29;;;;;;;2.08;1.88;;;29.10;97.50;;;;;;4969454;28;20889;-74
2021/08/16 11:45:03;;;;;;;3.38;2.25;;;29.20;98.60;;;;;;4988714;28;20393;-73
2021/08/16 11:47:30;;;;;;;1.42;1.33;;;29.10;97.30;;;;;;4977649;28;20397;-74
2021/08/16 11:50:13;;;;;;;2.90;1.90;;;29.00;99.40;;;;;;4988422;28;20857;-74
2021/08/16 11:52:39;;;;;;;1.67;1.58;;;29.40;95.50;;;;;;5003027;28;20403;-74
2021/08/16 11:55:08;;;;;;;2.00;1.65;;;29.70;93.50;;;;;;4971613;28;20391;-74
2021/08/16 11:57:34;;;;;;;1.70;1.60;;;30.00;93.70;;;;;;4969708;28;20451;-74
2021/08/16 11:59:59;;;;;;;1.52;1.42;;;30.30;92.60;;;;;;5003739;28;20407;-74
2021/08/16 12:02:26;;;;;;;1.63;1.53;;;30.40;89.80;;;;;;4985415;28;20498;-73
2021/08/16 12:04:53;;;;;;;2.10;1.70;;;30.10;86.50;;;;;;4972115;28;20768;-74
2021/08/16 12:07:24;;;;;;;2.67;1.77;;;30.20;87.00;;;;;;4968645;28;20397;-74
2021/08/16 12:09:50;;;;;;;1.58;1.45;;;30.40;87.30;;;;;;4996046;28;20404;-74
2021/08/16 12:12:24;;;;;;;1.50;1.40;;;30.60;85.60;;;;;;4986575;28;20436;-74
2021/08/16 12:15:06;;;;;;;2.25;1.77;;;30.40;82.60;;;;;;4995970;28;20463;-74
2021/08/16 12:17:32;;;;;;;4.22;1.73;;;30.20;80.40;;;;;;4986469;28;20392;-74
2021/08/16 12:20:15;;;;;;;4.20;2.00;;;30.30;84.30;;;;;;4988314;28;20394;-73
2021/08/16 12:22:57;;;;;;;1.80;1.70;;;30.40;80.20;;;;;;5002905;28;20480;-74
2021/08/16 12:25:23;;;;;;;1.70;1.60;;;30.50;80.90;;;;;;4993455;28;20384;-74
2021/08/16 12:27:56;;;;;;;1.75;1.63;;;30.70;82.70;;;;;;4969746;28;20397;-74
2021/08/16 12:30:22;;;;;;;1.45;1.35;;;30.60;79.90;;;;;;5002283;28;21382;-73
2021/08/16 12:32:47;;;;;;;2.20;1.60;;;30.70;79.70;;;;;;5002025;28;20403;-75
2021/08/16 12:35:14;;;;;;;1.58;1.42;;;30.80;75.70;;;;;;4986995;28;20470;-74
2021/08/16 12:37:40;;;;;;;1.50;1.30;;;30.80;76.20;;;;;;4985395;28;20912;-74
2021/08/16 12:40:13;;;;;;;1.70;1.40;;;31.00;78.20;;;;;;4971208;28;20528;-74
2021/08/16 12:42:40;;;;;;;1.40;1.30;;;30.90;72.30;;;;;;5009872;28;20405;-74
2021/08/16 12:45:11;;;;;;;5.22;1.48;;;30.70;74.30;;;;;;4970210;28;20399;-73